sensor_id;sensor_type;location;lat;lon;timestamp;P1;durP1;ratioP1;P2;durP2;ratioP2
74624;SDS011;63131;52.298;8.056;2023-08-21T00:01:39;6.18;;;1.58;;
74624;SDS011;63131;52.298;8.056;2023-08-21T00:04:05;4.60;;;1.60;;
74624;SDS011;63131;52.298;8.056;2023-08-21T00:06:30;5.97;;;1.47;;
74624;SDS011;63131;52.298;8.056;2023-08-21T00:08:55;4.10;;;1.43;;
74624;SDS011;63131;52.298;8.056;2023-08-21T00:11:20;4.33;;;1.40;;
74624;SDS011;63131;52.298;8.056;2023-08-21T00:13:45;5.10;;;1.50;;
74624;SDS011;63131;52.298;8.056;2023-08-21T00:16:12;4.05;;;1.42;;
74624;SDS011;63131;52.298;8.056;2023-08-21T00:18:38;5.37;;;1.60;;
74624;SDS011;63131;52.298;8.056;2023-08-21T00:21:03;4.23;;;1.80;;
74624;SDS011;63131;52.298;8.056;2023-08-21T00:23:28;5.50;;;1.80;;
74624;SDS011;63131;52.298;8.056;2023-08-21T00:25:53;7.07;;;1.70;;
74624;SDS011;63131;52.298;8.056;2023-08-21T00:28:18;5.17;;;1.30;;
74624;SDS011;63131;52.298;8.056;2023-08-21T00:30:44;4.53;;;1.63;;
74624;SDS011;63131;52.298;8.056;2023-08-21T00:33:09;6.23;;;1.57;;
74624;SDS011;63131;52.298;8.056;2023-08-21T00:35:34;7.47;;;1.83;;
74624;SDS011;63131;52.298;8.056;2023-08-21T00:37:59;14.90;;;1.90;;
74624;SDS011;63131;52.298;8.056;2023-08-21T00:40:24;6.07;;;1.80;;
74624;SDS011;63131;52.298;8.056;2023-08-21T00:42:50;7.10;;;1.80;;
74624;SDS011;63131;52.298;8.056;2023-08-21T00:45:15;5.10;;;1.30;;
74624;SDS011;63131;52.298;8.056;2023-08-21T00:47:40;5.47;;;1.80;;
74624;SDS011;63131;52.298;8.056;2023-08-21T00:50:06;4.47;;;1.30;;
74624;SDS011;63131;52.298;8.056;2023-08-21T00:52:31;5.15;;;1.75;;
74624;SDS011;63131;52.298;8.056;2023-08-21T00:54:57;5.20;;;1.65;;
74624;SDS011;63131;52.298;8.056;2023-08-21T00:57:22;5.28;;;1.70;;
74624;SDS011;63131;52.298;8.056;2023-08-21T00:59:48;4.07;;;1.27;;
74624;SDS011;63131;52.298;8.056;2023-08-21T01:02:13;3.10;;;1.30;;
74624;SDS011;63131;52.298;8.056;2023-08-21T01:04:38;5.40;;;1.45;;
74624;SDS011;63131;52.298;8.056;2023-08-21T01:07:04;4.97;;;1.60;;
74624;SDS011;63131;52.298;8.056;2023-08-21T01:09:45;5.13;;;2.42;;
74624;SDS011;63131;52.298;8.056;2023-08-21T01:12:33;6.38;;;1.73;;
74624;SDS011;63131;52.298;8.056;2023-08-21T01:15:06;4.50;;;1.50;;
74624;SDS011;63131;52.298;8.056;2023-08-21T01:17:36;5.10;;;1.48;;
74624;SDS011;63131;52.298;8.056;2023-08-21T01:20:02;5.15;;;1.50;;
74624;SDS011;63131;52.298;8.056;2023-08-21T01:22:34;3.65;;;1.30;;
74624;SDS011;63131;52.298;8.056;2023-08-21T01:24:59;5.38;;;1.45;;
74624;SDS011;63131;52.298;8.056;2023-08-21T01:27:25;4.57;;;1.57;;
74624;SDS011;63131;52.298;8.056;2023-08-21T01:29:50;5.32;;;1.60;;
74624;SDS011;63131;52.298;8.056;2023-08-21T01:34:56;7.38;;;1.52;;
74624;SDS011;63131;52.298;8.056;2023-08-21T01:37:22;4.88;;;1.60;;
74624;SDS011;63131;52.298;8.056;2023-08-21T01:39:47;4.55;;;1.73;;
74624;SDS011;63131;52.298;8.056;2023-08-21T01:42:12;5.27;;;1.60;;
74624;SDS011;63131;52.298;8.056;2023-08-21T01:44:37;6.13;;;2.00;;
74624;SDS011;63131;52.298;8.056;2023-08-21T01:47:03;5.10;;;1.90;;
74624;SDS011;63131;52.298;8.056;2023-08-21T01:49:28;5.03;;;2.00;;
74624;SDS011;63131;52.298;8.056;2023-08-21T01:51:53;7.13;;;1.93;;
74624;SDS011;63131;52.298;8.056;2023-08-21T01:54:18;5.33;;;1.73;;
74624;SDS011;63131;52.298;8.056;2023-08-21T01:56:43;3.67;;;1.47;;
74624;SDS011;63131;52.298;8.056;2023-08-21T01:59:09;6.60;;;1.77;;
74624;SDS011;63131;52.298;8.056;2023-08-21T02:01:34;4.05;;;1.45;;
74624;SDS011;63131;52.298;8.056;2023-08-21T02:03:59;4.73;;;1.80;;
74624;SDS011;63131;52.298;8.056;2023-08-21T02:06:24;5.70;;;1.70;;
74624;SDS011;63131;52.298;8.056;2023-08-21T02:08:49;10.00;;;1.83;;
74624;SDS011;63131;52.298;8.056;2023-08-21T02:11:15;5.90;;;1.67;;
74624;SDS011;63131;52.298;8.056;2023-08-21T02:13:40;5.60;;;1.90;;
74624;SDS011;63131;52.298;8.056;2023-08-21T02:16:05;6.23;;;1.93;;
74624;SDS011;63131;52.298;8.056;2023-08-21T02:18:30;4.90;;;1.30;;
74624;SDS011;63131;52.298;8.056;2023-08-21T02:20:56;4.60;;;1.50;;
74624;SDS011;63131;52.298;8.056;2023-08-21T02:23:21;5.80;;;1.70;;
74624;SDS011;63131;52.298;8.056;2023-08-21T02:25:46;4.93;;;1.50;;
74624;SDS011;63131;52.298;8.056;2023-08-21T02:28:11;4.55;;;1.63;;
74624;SDS011;63131;52.298;8.056;2023-08-21T02:30:39;8.63;;;1.73;;
74624;SDS011;63131;52.298;8.056;2023-08-21T02:33:05;5.25;;;2.42;;
74624;SDS011;63131;52.298;8.056;2023-08-21T02:35:30;7.20;;;1.83;;
74624;SDS011;63131;52.298;8.056;2023-08-21T02:37:55;5.53;;;1.97;;
74624;SDS011;63131;52.298;8.056;2023-08-21T02:40:20;4.27;;;1.50;;
74624;SDS011;63131;52.298;8.056;2023-08-21T02:42:45;4.00;;;1.50;;
74624;SDS011;63131;52.298;8.056;2023-08-21T02:45:11;4.60;;;1.60;;
74624;SDS011;63131;52.298;8.056;2023-08-21T02:47:39;5.77;;;1.80;;
74624;SDS011;63131;52.298;8.056;2023-08-21T02:50:05;5.75;;;1.38;;
74624;SDS011;63131;52.298;8.056;2023-08-21T02:52:31;4.93;;;1.90;;
74624;SDS011;63131;52.298;8.056;2023-08-21T02:54:56;6.10;;;2.13;;
74624;SDS011;63131;52.298;8.056;2023-08-21T02:57:22;8.80;;;1.92;;
74624;SDS011;63131;52.298;8.056;2023-08-21T02:59:48;7.15;;;1.80;;
74624;SDS011;63131;52.298;8.056;2023-08-21T03:02:13;5.03;;;1.57;;
74624;SDS011;63131;52.298;8.056;2023-08-21T03:04:38;4.40;;;1.77;;
74624;SDS011;63131;52.298;8.056;2023-08-21T03:07:03;6.83;;;1.93;;
74624;SDS011;63131;52.298;8.056;2023-08-21T03:09:28;6.33;;;1.73;;
74624;SDS011;63131;52.298;8.056;2023-08-21T03:11:53;6.87;;;1.57;;
74624;SDS011;63131;52.298;8.056;2023-08-21T03:14:19;4.82;;;1.45;;
74624;SDS011;63131;52.298;8.056;2023-08-21T03:16:44;6.43;;;2.33;;
74624;SDS011;63131;52.298;8.056;2023-08-21T03:19:09;5.83;;;1.57;;
74624;SDS011;63131;52.298;8.056;2023-08-21T03:21:34;5.60;;;1.70;;
74624;SDS011;63131;52.298;8.056;2023-08-21T03:24:00;5.17;;;1.73;;
74624;SDS011;63131;52.298;8.056;2023-08-21T03:26:25;4.43;;;1.70;;
74624;SDS011;63131;52.298;8.056;2023-08-21T03:28:50;4.97;;;1.67;;
74624;SDS011;63131;52.298;8.056;2023-08-21T03:31:15;8.80;;;1.87;;
74624;SDS011;63131;52.298;8.056;2023-08-21T03:33:41;5.13;;;1.70;;
74624;SDS011;63131;52.298;8.056;2023-08-21T03:36:06;5.43;;;1.77;;
74624;SDS011;63131;52.298;8.056;2023-08-21T03:38:31;5.43;;;2.20;;
74624;SDS011;63131;52.298;8.056;2023-08-21T03:40:57;7.30;;;2.07;;
74624;SDS011;63131;52.298;8.056;2023-08-21T03:43:22;4.83;;;1.87;;
74624;SDS011;63131;52.298;8.056;2023-08-21T03:45:47;6.33;;;1.90;;
74624;SDS011;63131;52.298;8.056;2023-08-21T03:48:12;5.43;;;2.00;;
74624;SDS011;63131;52.298;8.056;2023-08-21T03:50:38;7.13;;;2.75;;
74624;SDS011;63131;52.298;8.056;2023-08-21T03:53:03;4.43;;;2.10;;
74624;SDS011;63131;52.298;8.056;2023-08-21T03:55:28;5.50;;;1.70;;
74624;SDS011;63131;52.298;8.056;2023-08-21T03:57:54;6.43;;;2.00;;
74624;SDS011;63131;52.298;8.056;2023-08-21T04:00:19;5.10;;;2.17;;
74624;SDS011;63131;52.298;8.056;2023-08-21T04:02:44;5.50;;;1.93;;
74624;SDS011;63131;52.298;8.056;2023-08-21T04:05:09;5.77;;;1.90;;
74624;SDS011;63131;52.298;8.056;2023-08-21T04:07:36;5.10;;;1.52;;
74624;SDS011;63131;52.298;8.056;2023-08-21T04:10:01;5.30;;;2.07;;
74624;SDS011;63131;52.298;8.056;2023-08-21T04:12:26;6.70;;;2.07;;
74624;SDS011;63131;52.298;8.056;2023-08-21T04:14:51;9.10;;;1.90;;
74624;SDS011;63131;52.298;8.056;2023-08-21T04:17:20;6.17;;;2.10;;
74624;SDS011;63131;52.298;8.056;2023-08-21T04:19:45;6.30;;;1.90;;
74624;SDS011;63131;52.298;8.056;2023-08-21T04:22:10;5.67;;;2.20;;
74624;SDS011;63131;52.298;8.056;2023-08-21T04:24:35;8.23;;;2.20;;
74624;SDS011;63131;52.298;8.056;2023-08-21T04:27:03;6.10;;;2.20;;
74624;SDS011;63131;52.298;8.056;2023-08-21T04:29:29;5.37;;;1.67;;
74624;SDS011;63131;52.298;8.056;2023-08-21T04:31:54;9.10;;;2.13;;
74624;SDS011;63131;52.298;8.056;2023-08-21T04:34:19;6.07;;;2.13;;
74624;SDS011;63131;52.298;8.056;2023-08-21T04:36:44;6.43;;;2.23;;
74624;SDS011;63131;52.298;8.056;2023-08-21T04:39:09;7.50;;;2.40;;
74624;SDS011;63131;52.298;8.056;2023-08-21T04:41:35;7.50;;;2.17;;
74624;SDS011;63131;52.298;8.056;2023-08-21T04:44:00;5.35;;;2.00;;
74624;SDS011;63131;52.298;8.056;2023-08-21T04:46:25;6.30;;;2.20;;
74624;SDS011;63131;52.298;8.056;2023-08-21T04:48:50;6.60;;;2.23;;
74624;SDS011;63131;52.298;8.056;2023-08-21T04:51:15;6.53;;;2.00;;
74624;SDS011;63131;52.298;8.056;2023-08-21T04:53:41;7.97;;;2.90;;
74624;SDS011;63131;52.298;8.056;2023-08-21T04:56:06;6.70;;;2.10;;
74624;SDS011;63131;52.298;8.056;2023-08-21T04:58:31;7.47;;;2.33;;
74624;SDS011;63131;52.298;8.056;2023-08-21T05:00:56;7.38;;;2.40;;
74624;SDS011;63131;52.298;8.056;2023-08-21T05:03:22;6.17;;;2.27;;
74624;SDS011;63131;52.298;8.056;2023-08-21T05:05:53;5.67;;;1.90;;
74624;SDS011;63131;52.298;8.056;2023-08-21T05:08:20;7.28;;;2.10;;
74624;SDS011;63131;52.298;8.056;2023-08-21T05:10:45;7.75;;;2.13;;
74624;SDS011;63131;52.298;8.056;2023-08-21T05:13:10;6.03;;;2.10;;
74624;SDS011;63131;52.298;8.056;2023-08-21T05:15:35;8.30;;;2.37;;
74624;SDS011;63131;52.298;8.056;2023-08-21T05:18:00;6.23;;;2.00;;
74624;SDS011;63131;52.298;8.056;2023-08-21T05:20:25;8.17;;;2.20;;
74624;SDS011;63131;52.298;8.056;2023-08-21T05:22:51;5.30;;;1.80;;
74624;SDS011;63131;52.298;8.056;2023-08-21T05:25:16;6.10;;;2.30;;
74624;SDS011;63131;52.298;8.056;2023-08-21T05:27:41;7.50;;;2.27;;
74624;SDS011;63131;52.298;8.056;2023-08-21T05:30:06;6.37;;;2.47;;
74624;SDS011;63131;52.298;8.056;2023-08-21T05:32:32;6.65;;;2.83;;
74624;SDS011;63131;52.298;8.056;2023-08-21T05:34:57;6.70;;;2.43;;
74624;SDS011;63131;52.298;8.056;2023-08-21T05:37:22;7.63;;;2.33;;
74624;SDS011;63131;52.298;8.056;2023-08-21T05:39:47;7.53;;;2.43;;
74624;SDS011;63131;52.298;8.056;2023-08-21T05:42:13;8.00;;;2.60;;
74624;SDS011;63131;52.298;8.056;2023-08-21T05:44:39;6.73;;;2.37;;
74624;SDS011;63131;52.298;8.056;2023-08-21T05:47:04;8.10;;;2.73;;
74624;SDS011;63131;52.298;8.056;2023-08-21T05:49:29;7.83;;;2.67;;
74624;SDS011;63131;52.298;8.056;2023-08-21T05:51:55;7.80;;;2.43;;
74624;SDS011;63131;52.298;8.056;2023-08-21T05:54:21;7.65;;;2.63;;
74624;SDS011;63131;52.298;8.056;2023-08-21T05:56:46;8.63;;;2.93;;
74624;SDS011;63131;52.298;8.056;2023-08-21T05:59:12;6.83;;;2.67;;
74624;SDS011;63131;52.298;8.056;2023-08-21T06:01:37;8.70;;;2.57;;
74624;SDS011;63131;52.298;8.056;2023-08-21T06:04:02;6.53;;;2.43;;
74624;SDS011;63131;52.298;8.056;2023-08-21T06:06:27;9.33;;;2.57;;
74624;SDS011;63131;52.298;8.056;2023-08-21T06:08:52;6.43;;;2.50;;
74624;SDS011;63131;52.298;8.056;2023-08-21T06:11:18;6.20;;;2.40;;
74624;SDS011;63131;52.298;8.056;2023-08-21T06:13:43;8.20;;;2.60;;
74624;SDS011;63131;52.298;8.056;2023-08-21T06:16:08;7.17;;;2.20;;
74624;SDS011;63131;52.298;8.056;2023-08-21T06:18:33;7.60;;;2.57;;
74624;SDS011;63131;52.298;8.056;2023-08-21T06:20:59;7.03;;;2.77;;
74624;SDS011;63131;52.298;8.056;2023-08-21T06:23:24;6.10;;;2.30;;
74624;SDS011;63131;52.298;8.056;2023-08-21T06:25:49;7.30;;;2.63;;
74624;SDS011;63131;52.298;8.056;2023-08-21T06:28:14;9.20;;;3.07;;
74624;SDS011;63131;52.298;8.056;2023-08-21T06:30:39;6.90;;;2.43;;
74624;SDS011;63131;52.298;8.056;2023-08-21T06:33:05;7.27;;;2.43;;
74624;SDS011;63131;52.298;8.056;2023-08-21T06:35:30;7.60;;;2.10;;
74624;SDS011;63131;52.298;8.056;2023-08-21T06:37:55;6.60;;;2.40;;
74624;SDS011;63131;52.298;8.056;2023-08-21T06:40:20;8.63;;;2.80;;
74624;SDS011;63131;52.298;8.056;2023-08-21T06:42:45;6.63;;;2.50;;
74624;SDS011;63131;52.298;8.056;2023-08-21T06:45:11;6.37;;;2.60;;
74624;SDS011;63131;52.298;8.056;2023-08-21T06:47:36;9.23;;;2.77;;
74624;SDS011;63131;52.298;8.056;2023-08-21T06:50:01;6.10;;;2.17;;
74624;SDS011;63131;52.298;8.056;2023-08-21T06:52:26;8.67;;;2.60;;
74624;SDS011;63131;52.298;8.056;2023-08-21T06:54:52;5.07;;;2.00;;
74624;SDS011;63131;52.298;8.056;2023-08-21T06:57:17;6.73;;;2.27;;
74624;SDS011;63131;52.298;8.056;2023-08-21T06:59:42;6.50;;;2.10;;
74624;SDS011;63131;52.298;8.056;2023-08-21T07:02:07;6.53;;;2.10;;
74624;SDS011;63131;52.298;8.056;2023-08-21T07:04:32;6.73;;;1.90;;
74624;SDS011;63131;52.298;8.056;2023-08-21T07:07:00;6.75;;;1.50;;
74624;SDS011;63131;52.298;8.056;2023-08-21T07:09:26;5.57;;;1.80;;
74624;SDS011;63131;52.298;8.056;2023-08-21T07:11:51;6.57;;;1.80;;
74624;SDS011;63131;52.298;8.056;2023-08-21T07:14:16;8.77;;;1.93;;
74624;SDS011;63131;52.298;8.056;2023-08-21T07:16:42;8.30;;;2.63;;
74624;SDS011;63131;52.298;8.056;2023-08-21T07:19:07;5.32;;;2.13;;
74624;SDS011;63131;52.298;8.056;2023-08-21T07:21:32;7.27;;;1.80;;
74624;SDS011;63131;52.298;8.056;2023-08-21T07:24:00;6.68;;;1.92;;
74624;SDS011;63131;52.298;8.056;2023-08-21T07:26:25;6.72;;;1.63;;
74624;SDS011;63131;52.298;8.056;2023-08-21T07:28:50;8.57;;;1.80;;
74624;SDS011;63131;52.298;8.056;2023-08-21T07:31:17;5.85;;;1.80;;
74624;SDS011;63131;52.298;8.056;2023-08-21T07:33:43;6.80;;;2.10;;
74624;SDS011;63131;52.298;8.056;2023-08-21T07:36:08;4.90;;;1.70;;
74624;SDS011;63131;52.298;8.056;2023-08-21T07:38:33;6.03;;;1.57;;
74624;SDS011;63131;52.298;8.056;2023-08-21T07:41:05;7.87;;;1.67;;
74624;SDS011;63131;52.298;8.056;2023-08-21T07:43:31;7.90;;;2.05;;
74624;SDS011;63131;52.298;8.056;2023-08-21T07:45:56;6.25;;;1.80;;
74624;SDS011;63131;52.298;8.056;2023-08-21T07:48:21;8.67;;;1.90;;
74624;SDS011;63131;52.298;8.056;2023-08-21T07:50:53;6.30;;;1.60;;
74624;SDS011;63131;52.298;8.056;2023-08-21T07:53:18;9.68;;;1.90;;
74624;SDS011;63131;52.298;8.056;2023-08-21T07:55:44;6.50;;;1.52;;
74624;SDS011;63131;52.298;8.056;2023-08-21T07:58:10;8.07;;;1.60;;
74624;SDS011;63131;52.298;8.056;2023-08-21T08:00:35;6.57;;;1.67;;
74624;SDS011;63131;52.298;8.056;2023-08-21T08:03:01;8.63;;;1.70;;
74624;SDS011;63131;52.298;8.056;2023-08-21T08:05:26;6.70;;;1.60;;
74624;SDS011;63131;52.298;8.056;2023-08-21T08:07:51;6.75;;;1.63;;
74624;SDS011;63131;52.298;8.056;2023-08-21T08:10:16;5.13;;;1.67;;
74624;SDS011;63131;52.298;8.056;2023-08-21T08:12:42;6.67;;;1.70;;
74624;SDS011;63131;52.298;8.056;2023-08-21T08:15:09;5.70;;;1.70;;
74624;SDS011;63131;52.298;8.056;2023-08-21T08:17:35;7.43;;;1.60;;
74624;SDS011;63131;52.298;8.056;2023-08-21T08:20:00;5.20;;;1.57;;
74624;SDS011;63131;52.298;8.056;2023-08-21T08:22:25;5.03;;;1.40;;
74624;SDS011;63131;52.298;8.056;2023-08-21T08:24:50;8.00;;;2.00;;
74624;SDS011;63131;52.298;8.056;2023-08-21T08:27:15;5.83;;;2.00;;
74624;SDS011;63131;52.298;8.056;2023-08-21T08:29:40;7.90;;;1.60;;
74624;SDS011;63131;52.298;8.056;2023-08-21T08:32:06;5.27;;;1.40;;
74624;SDS011;63131;52.298;8.056;2023-08-21T08:34:31;4.33;;;0.93;;
74624;SDS011;63131;52.298;8.056;2023-08-21T08:36:56;5.17;;;1.23;;
74624;SDS011;63131;52.298;8.056;2023-08-21T08:39:21;6.40;;;1.60;;
74624;SDS011;63131;52.298;8.056;2023-08-21T08:41:56;5.00;;;1.47;;
74624;SDS011;63131;52.298;8.056;2023-08-21T08:44:23;4.20;;;1.10;;
74624;SDS011;63131;52.298;8.056;2023-08-21T08:46:49;5.22;;;1.20;;
74624;SDS011;63131;52.298;8.056;2023-08-21T08:49:15;5.55;;;1.20;;
74624;SDS011;63131;52.298;8.056;2023-08-21T08:51:40;7.47;;;1.30;;
74624;SDS011;63131;52.298;8.056;2023-08-21T08:54:06;4.35;;;1.10;;
74624;SDS011;63131;52.298;8.056;2023-08-21T08:56:32;3.97;;;1.25;;
74624;SDS011;63131;52.298;8.056;2023-08-21T08:58:57;5.20;;;1.23;;
74624;SDS011;63131;52.298;8.056;2023-08-21T09:01:23;4.50;;;1.30;;
74624;SDS011;63131;52.298;8.056;2023-08-21T09:03:48;7.80;;;1.73;;
74624;SDS011;63131;52.298;8.056;2023-08-21T09:06:15;5.95;;;1.50;;
74624;SDS011;63131;52.298;8.056;2023-08-21T09:08:42;8.03;;;1.40;;
74624;SDS011;63131;52.298;8.056;2023-08-21T09:11:17;4.55;;;1.42;;
74624;SDS011;63131;52.298;8.056;2023-08-21T09:13:43;4.13;;;1.20;;
74624;SDS011;63131;52.298;8.056;2023-08-21T09:16:08;5.07;;;1.38;;
74624;SDS011;63131;52.298;8.056;2023-08-21T09:18:34;6.25;;;1.60;;
74624;SDS011;63131;52.298;8.056;2023-08-21T09:21:01;4.38;;;1.23;;
74624;SDS011;63131;52.298;8.056;2023-08-21T09:23:26;7.18;;;1.60;;
74624;SDS011;63131;52.298;8.056;2023-08-21T09:25:53;5.32;;;1.10;;
74624;SDS011;63131;52.298;8.056;2023-08-21T09:28:19;3.53;;;1.17;;
74624;SDS011;63131;52.298;8.056;2023-08-21T09:30:50;7.15;;;1.60;;
74624;SDS011;63131;52.298;8.056;2023-08-21T09:33:16;4.72;;;1.40;;
74624;SDS011;63131;52.298;8.056;2023-08-21T09:35:42;4.55;;;1.35;;
74624;SDS011;63131;52.298;8.056;2023-08-21T09:38:07;5.07;;;1.73;;
74624;SDS011;63131;52.298;8.056;2023-08-21T09:40:32;4.65;;;1.40;;
74624;SDS011;63131;52.298;8.056;2023-08-21T09:42:58;4.85;;;1.30;;
74624;SDS011;63131;52.298;8.056;2023-08-21T09:45:24;4.85;;;1.10;;
74624;SDS011;63131;52.298;8.056;2023-08-21T09:47:50;4.32;;;1.20;;
74624;SDS011;63131;52.298;8.056;2023-08-21T09:50:16;5.35;;;1.33;;
74624;SDS011;63131;52.298;8.056;2023-08-21T09:52:42;4.75;;;1.25;;
74624;SDS011;63131;52.298;8.056;2023-08-21T09:55:08;5.45;;;1.15;;
74624;SDS011;63131;52.298;8.056;2023-08-21T09:57:34;4.18;;;1.35;;
74624;SDS011;63131;52.298;8.056;2023-08-21T10:00:00;3.20;;;1.10;;
74624;SDS011;63131;52.298;8.056;2023-08-21T10:02:27;5.80;;;1.42;;
74624;SDS011;63131;52.298;8.056;2023-08-21T10:04:52;4.50;;;1.30;;
74624;SDS011;63131;52.298;8.056;2023-08-21T10:07:21;5.68;;;1.38;;
74624;SDS011;63131;52.298;8.056;2023-08-21T10:09:48;3.22;;;1.13;;
74624;SDS011;63131;52.298;8.056;2023-08-21T10:12:14;3.25;;;1.08;;
74624;SDS011;63131;52.298;8.056;2023-08-21T10:14:41;4.22;;;1.05;;
74624;SDS011;63131;52.298;8.056;2023-08-21T10:17:06;5.88;;;1.30;;
74624;SDS011;63131;52.298;8.056;2023-08-21T10:19:33;7.15;;;1.40;;
74624;SDS011;63131;52.298;8.056;2023-08-21T10:21:59;4.25;;;1.20;;
74624;SDS011;63131;52.298;8.056;2023-08-21T10:24:28;4.07;;;1.27;;
74624;SDS011;63131;52.298;8.056;2023-08-21T10:26:53;5.60;;;1.23;;
74624;SDS011;63131;52.298;8.056;2023-08-21T10:29:19;4.55;;;0.98;;
74624;SDS011;63131;52.298;8.056;2023-08-21T10:31:44;5.35;;;1.33;;
74624;SDS011;63131;52.298;8.056;2023-08-21T10:34:12;3.37;;;1.00;;
74624;SDS011;63131;52.298;8.056;2023-08-21T10:36:40;3.30;;;1.10;;
74624;SDS011;63131;52.298;8.056;2023-08-21T10:39:24;4.00;;;1.23;;
74624;SDS011;63131;52.298;8.056;2023-08-21T10:44:33;3.03;;;1.00;;
74624;SDS011;63131;52.298;8.056;2023-08-21T10:47:12;3.78;;;1.40;;
74624;SDS011;63131;52.298;8.056;2023-08-21T10:49:37;2.83;;;0.98;;
74624;SDS011;63131;52.298;8.056;2023-08-21T10:52:03;3.33;;;1.10;;
74624;SDS011;63131;52.298;8.056;2023-08-21T10:54:28;3.70;;;1.30;;
74624;SDS011;63131;52.298;8.056;2023-08-21T10:57:07;3.70;;;1.23;;
74624;SDS011;63131;52.298;8.056;2023-08-21T10:59:32;4.10;;;1.10;;
74624;SDS011;63131;52.298;8.056;2023-08-21T11:01:58;3.65;;;1.00;;
74624;SDS011;63131;52.298;8.056;2023-08-21T11:04:23;3.77;;;1.50;;
74624;SDS011;63131;52.298;8.056;2023-08-21T11:06:50;5.60;;;1.17;;
74624;SDS011;63131;52.298;8.056;2023-08-21T11:09:16;4.15;;;1.08;;
74624;SDS011;63131;52.298;8.056;2023-08-21T11:11:42;4.28;;;1.20;;
74624;SDS011;63131;52.298;8.056;2023-08-21T11:14:08;4.97;;;1.20;;
74624;SDS011;63131;52.298;8.056;2023-08-21T11:16:33;5.07;;;1.30;;
74624;SDS011;63131;52.298;8.056;2023-08-21T11:19:02;4.23;;;1.20;;
74624;SDS011;63131;52.298;8.056;2023-08-21T11:21:27;4.68;;;1.20;;
74624;SDS011;63131;52.298;8.056;2023-08-21T11:23:53;4.00;;;1.37;;
74624;SDS011;63131;52.298;8.056;2023-08-21T11:26:18;3.13;;;1.20;;
74624;SDS011;63131;52.298;8.056;2023-08-21T11:28:43;4.20;;;1.40;;
74624;SDS011;63131;52.298;8.056;2023-08-21T11:31:09;5.85;;;1.60;;
74624;SDS011;63131;52.298;8.056;2023-08-21T11:33:36;4.95;;;1.33;;
74624;SDS011;63131;52.298;8.056;2023-08-21T11:36:02;5.88;;;1.55;;
74624;SDS011;63131;52.298;8.056;2023-08-21T11:38:27;7.38;;;1.55;;
74624;SDS011;63131;52.298;8.056;2023-08-21T11:43:33;6.00;;;1.45;;
74624;SDS011;63131;52.298;8.056;2023-08-21T11:45:58;4.07;;;1.40;;
74624;SDS011;63131;52.298;8.056;2023-08-21T11:48:25;3.35;;;1.55;;
74624;SDS011;63131;52.298;8.056;2023-08-21T11:50:50;4.97;;;1.70;;
74624;SDS011;63131;52.298;8.056;2023-08-21T11:53:29;5.30;;;1.40;;
74624;SDS011;63131;52.298;8.056;2023-08-21T11:55:55;5.70;;;1.50;;
74624;SDS011;63131;52.298;8.056;2023-08-21T11:58:21;5.93;;;1.38;;
74624;SDS011;63131;52.298;8.056;2023-08-21T12:00:46;6.37;;;1.43;;
74624;SDS011;63131;52.298;8.056;2023-08-21T12:03:11;5.00;;;1.37;;
74624;SDS011;63131;52.298;8.056;2023-08-21T12:05:42;6.47;;;1.60;;
74624;SDS011;63131;52.298;8.056;2023-08-21T12:08:08;5.70;;;1.40;;
74624;SDS011;63131;52.298;8.056;2023-08-21T12:10:34;4.40;;;1.30;;
74624;SDS011;63131;52.298;8.056;2023-08-21T12:12:59;4.90;;;1.40;;
74624;SDS011;63131;52.298;8.056;2023-08-21T12:15:24;5.37;;;1.50;;
74624;SDS011;63131;52.298;8.056;2023-08-21T12:17:49;4.90;;;1.40;;
74624;SDS011;63131;52.298;8.056;2023-08-21T12:20:14;6.33;;;1.57;;
74624;SDS011;63131;52.298;8.056;2023-08-21T12:22:40;4.43;;;1.60;;
74624;SDS011;63131;52.298;8.056;2023-08-21T12:25:07;3.92;;;1.30;;
74624;SDS011;63131;52.298;8.056;2023-08-21T12:27:33;5.55;;;1.65;;
74624;SDS011;63131;52.298;8.056;2023-08-21T12:29:58;3.90;;;1.30;;
74624;SDS011;63131;52.298;8.056;2023-08-21T12:32:24;6.07;;;1.40;;
74624;SDS011;63131;52.298;8.056;2023-08-21T12:34:49;4.20;;;1.40;;
74624;SDS011;63131;52.298;8.056;2023-08-21T12:37:14;6.57;;;1.90;;
74624;SDS011;63131;52.298;8.056;2023-08-21T12:39:39;6.70;;;1.63;;
74624;SDS011;63131;52.298;8.056;2023-08-21T12:42:04;5.83;;;1.40;;
74624;SDS011;63131;52.298;8.056;2023-08-21T12:44:30;5.27;;;1.37;;
74624;SDS011;63131;52.298;8.056;2023-08-21T12:46:55;9.07;;;1.73;;
74624;SDS011;63131;52.298;8.056;2023-08-21T12:49:20;7.05;;;1.48;;
74624;SDS011;63131;52.298;8.056;2023-08-21T12:51:45;4.78;;;1.40;;
74624;SDS011;63131;52.298;8.056;2023-08-21T12:54:11;6.20;;;2.03;;
74624;SDS011;63131;52.298;8.056;2023-08-21T12:56:37;6.25;;;1.63;;
74624;SDS011;63131;52.298;8.056;2023-08-21T12:59:04;4.72;;;1.60;;
74624;SDS011;63131;52.298;8.056;2023-08-21T13:01:29;7.50;;;1.67;;
74624;SDS011;63131;52.298;8.056;2023-08-21T13:03:56;6.03;;;1.80;;
74624;SDS011;63131;52.298;8.056;2023-08-21T13:06:22;4.60;;;1.88;;
74624;SDS011;63131;52.298;8.056;2023-08-21T13:08:47;5.27;;;1.47;;
74624;SDS011;63131;52.298;8.056;2023-08-21T13:11:13;4.85;;;1.40;;
74624;SDS011;63131;52.298;8.056;2023-08-21T13:13:39;6.00;;;1.30;;
74624;SDS011;63131;52.298;8.056;2023-08-21T13:16:05;5.77;;;2.30;;
74624;SDS011;63131;52.298;8.056;2023-08-21T13:18:31;5.85;;;1.80;;
74624;SDS011;63131;52.298;8.056;2023-08-21T13:20:57;6.30;;;1.43;;
74624;SDS011;63131;52.298;8.056;2023-08-21T13:23:22;6.30;;;1.60;;
74624;SDS011;63131;52.298;8.056;2023-08-21T13:25:47;4.30;;;1.20;;
74624;SDS011;63131;52.298;8.056;2023-08-21T13:28:13;12.60;;;2.28;;
74624;SDS011;63131;52.298;8.056;2023-08-21T13:30:38;5.90;;;1.60;;
74624;SDS011;63131;52.298;8.056;2023-08-21T13:33:03;5.10;;;1.10;;
74624;SDS011;63131;52.298;8.056;2023-08-21T13:35:29;4.97;;;1.30;;
74624;SDS011;63131;52.298;8.056;2023-08-21T13:37:54;6.10;;;1.67;;
74624;SDS011;63131;52.298;8.056;2023-08-21T13:40:20;5.03;;;1.60;;
74624;SDS011;63131;52.298;8.056;2023-08-21T13:42:46;4.80;;;1.60;;
74624;SDS011;63131;52.298;8.056;2023-08-21T13:45:12;8.38;;;2.10;;
74624;SDS011;63131;52.298;8.056;2023-08-21T13:47:38;5.93;;;1.83;;
74624;SDS011;63131;52.298;8.056;2023-08-21T13:50:04;5.38;;;1.40;;
74624;SDS011;63131;52.298;8.056;2023-08-21T13:52:30;4.82;;;1.60;;
74624;SDS011;63131;52.298;8.056;2023-08-21T13:54:55;4.97;;;1.65;;
74624;SDS011;63131;52.298;8.056;2023-08-21T13:57:20;6.10;;;1.83;;
74624;SDS011;63131;52.298;8.056;2023-08-21T13:59:46;7.80;;;1.90;;
74624;SDS011;63131;52.298;8.056;2023-08-21T14:02:11;4.20;;;1.87;;
74624;SDS011;63131;52.298;8.056;2023-08-21T14:04:36;3.60;;;1.33;;
74624;SDS011;63131;52.298;8.056;2023-08-21T14:07:02;4.97;;;1.40;;
74624;SDS011;63131;52.298;8.056;2023-08-21T14:09:27;4.33;;;1.40;;
74624;SDS011;63131;52.298;8.056;2023-08-21T14:11:53;6.00;;;1.53;;
74624;SDS011;63131;52.298;8.056;2023-08-21T14:14:18;5.37;;;1.50;;
74624;SDS011;63131;52.298;8.056;2023-08-21T14:16:43;3.83;;;1.88;;
74624;SDS011;63131;52.298;8.056;2023-08-21T14:19:08;3.50;;;1.20;;
74624;SDS011;63131;52.298;8.056;2023-08-21T14:21:33;6.03;;;1.20;;
74624;SDS011;63131;52.298;8.056;2023-08-21T14:23:59;3.30;;;1.40;;
74624;SDS011;63131;52.298;8.056;2023-08-21T14:26:24;5.37;;;1.50;;
74624;SDS011;63131;52.298;8.056;2023-08-21T14:28:49;4.82;;;1.60;;
74624;SDS011;63131;52.298;8.056;2023-08-21T14:31:16;6.88;;;1.45;;
74624;SDS011;63131;52.298;8.056;2023-08-21T14:33:41;6.68;;;1.98;;
74624;SDS011;63131;52.298;8.056;2023-08-21T14:36:06;4.30;;;1.23;;
74624;SDS011;63131;52.298;8.056;2023-08-21T14:38:31;4.93;;;1.87;;
74624;SDS011;63131;52.298;8.056;2023-08-21T14:40:57;4.63;;;1.40;;
74624;SDS011;63131;52.298;8.056;2023-08-21T14:43:23;3.28;;;1.20;;
74624;SDS011;63131;52.298;8.056;2023-08-21T14:45:48;4.87;;;1.60;;
74624;SDS011;63131;52.298;8.056;2023-08-21T14:48:13;5.57;;;1.93;;